createdAt,value
2023-04-18T00:01:38.723Z,7.73
2023-04-18T00:04:13.646Z,8.40
2023-04-18T00:06:46.296Z,8.60
2023-04-18T00:09:18.106Z,8.37
2023-04-18T00:11:51.075Z,8.87
2023-04-18T00:14:23.110Z,8.00
2023-04-18T00:16:54.886Z,8.30
2023-04-18T00:19:26.719Z,8.37
2023-04-18T00:21:59.842Z,8.20
2023-04-18T00:24:31.768Z,8.40
2023-04-18T00:27:05.061Z,8.00
2023-04-18T00:29:36.940Z,8.37
2023-04-18T00:32:09.005Z,7.83
2023-04-18T00:34:40.948Z,8.93
2023-04-18T00:37:12.616Z,7.80
2023-04-18T00:39:44.450Z,8.53
2023-04-18T00:42:17.630Z,8.20
2023-04-18T00:44:49.723Z,8.83
2023-04-18T00:47:21.602Z,8.50
2023-04-18T00:49:53.897Z,9.00
2023-04-18T00:52:28.411Z,8.33
2023-04-18T00:55:00.429Z,9.67
2023-04-18T00:57:33.856Z,9.23
2023-04-18T01:00:10.015Z,9.67
2023-04-18T01:02:43.935Z,9.13
2023-04-18T01:05:15.923Z,9.17
2023-04-18T01:07:48.382Z,9.20
2023-04-18T01:10:20.845Z,8.40
2023-04-18T01:13:11.093Z,9.30
2023-04-18T01:15:45.100Z,9.27
2023-04-18T01:18:18.978Z,8.67
2023-04-18T01:20:54.567Z,9.30
2023-04-18T01:23:26.623Z,9.80
2023-04-18T01:25:59.832Z,9.70
2023-04-18T01:28:31.751Z,9.30
2023-04-18T01:31:03.615Z,9.03
2023-04-18T01:33:35.433Z,10.10
2023-04-18T01:36:07.451Z,9.83
2023-04-18T01:38:39.275Z,9.90
2023-04-18T01:41:12.456Z,10.40
2023-04-18T01:43:44.245Z,10.83
2023-04-18T01:46:16.750Z,11.43
2023-04-18T01:48:48.573Z,11.10
2023-04-18T01:51:20.436Z,11.47
2023-04-18T01:53:52.225Z,11.30
2023-04-18T01:56:25.379Z,11.97
2023-04-18T01:58:57.322Z,11.77
2023-04-18T02:01:29.167Z,12.87
2023-04-18T02:04:01.147Z,12.27
2023-04-18T02:06:34.190Z,12.63
2023-04-18T02:09:07.422Z,11.43
2023-04-18T02:11:40.344Z,11.80
2023-04-18T02:14:12.356Z,12.33
2023-04-18T02:16:44.211Z,12.70
2023-04-18T02:19:16.051Z,12.30
2023-04-18T02:21:47.891Z,12.07
2023-04-18T02:24:19.735Z,11.83
2023-04-18T02:26:53.810Z,13.27
2023-04-18T02:29:25.749Z,13.40
2023-04-18T02:31:58.247Z,12.73
2023-04-18T02:34:29.959Z,12.53
2023-04-18T02:37:01.910Z,14.13
2023-04-18T02:39:33.686Z,13.00
2023-04-18T02:42:06.894Z,13.47
2023-04-18T02:44:38.821Z,13.57
2023-04-18T02:47:10.848Z,14.07
2023-04-18T02:49:42.602Z,13.77
2023-04-18T02:52:14.474Z,13.50
2023-04-18T02:54:46.367Z,14.00
2023-04-18T02:57:19.388Z,14.27
2023-04-18T02:59:51.162Z,14.37
2023-04-18T03:02:23.261Z,12.13
2023-04-18T03:04:56.254Z,13.57
2023-04-18T03:07:27.896Z,13.47
2023-04-18T03:09:59.876Z,13.80
2023-04-18T03:12:32.796Z,13.83
2023-04-18T03:15:04.838Z,14.17
2023-04-18T03:17:37.136Z,13.73
2023-04-18T03:20:12.158Z,14.47
2023-04-18T03:22:43.698Z,14.67
2023-04-18T03:25:15.574Z,13.50
2023-04-18T03:27:48.638Z,13.63
2023-04-18T03:30:21.220Z,13.73
2023-04-18T03:32:53.761Z,13.60
2023-04-18T03:35:25.381Z,13.00
2023-04-18T03:37:57.419Z,13.43
2023-04-18T03:40:28.971Z,13.20
2023-04-18T03:43:01.885Z,14.40
2023-04-18T03:45:33.785Z,14.60
2023-04-18T03:48:06.275Z,13.90
2023-04-18T03:50:38.131Z,13.60
2023-04-18T03:53:09.985Z,14.53
2023-04-18T03:55:42.324Z,13.97
2023-04-18T03:58:16.164Z,13.27
2023-04-18T04:00:47.747Z,15.03
2023-04-18T04:03:19.856Z,14.27
2023-04-18T04:05:51.909Z,13.67
2023-04-18T04:08:23.752Z,13.30
2023-04-18T04:10:55.556Z,13.23
2023-04-18T04:13:28.520Z,12.13
2023-04-18T04:16:00.546Z,13.93
2023-04-18T04:18:32.175Z,13.03
2023-04-18T04:21:04.050Z,13.43
2023-04-18T04:23:35.968Z,14.37
2023-04-18T04:26:08.218Z,13.30
2023-04-18T04:28:41.257Z,13.60
2023-04-18T04:31:13.169Z,13.43
2023-04-18T04:33:44.941Z,13.20
2023-04-18T04:36:23.001Z,12.43
2023-04-18T04:38:55.028Z,13.80
2023-04-18T04:41:27.763Z,13.10
2023-04-18T04:44:01.784Z,13.10
2023-04-18T04:46:34.506Z,13.33
2023-04-18T04:49:06.415Z,12.90
2023-04-18T04:51:38.386Z,12.90
2023-04-18T04:54:11.060Z,13.00
2023-04-18T04:56:42.985Z,13.20
2023-04-18T04:59:16.319Z,12.83
2023-04-18T05:01:48.128Z,12.77
2023-04-18T05:04:20.265Z,13.10
2023-04-18T05:06:52.372Z,12.27
2023-04-18T05:09:24.235Z,13.33
2023-04-18T05:11:56.106Z,12.97
2023-04-18T05:14:29.148Z,12.50
2023-04-18T05:17:01.151Z,12.63
2023-04-18T05:19:32.932Z,12.70
2023-04-18T05:22:04.706Z,12.93
2023-04-18T05:24:36.543Z,13.80
2023-04-18T05:27:08.479Z,13.33
2023-04-18T05:29:41.593Z,12.80
2023-04-18T05:32:13.422Z,13.40
2023-04-18T05:34:45.256Z,14.27
2023-04-18T05:37:17.369Z,13.63
2023-04-18T05:39:49.167Z,12.77
2023-04-18T05:42:20.935Z,13.13
2023-04-18T05:44:54.152Z,13.53
2023-04-18T05:47:28.424Z,13.77
2023-04-18T05:50:00.460Z,13.63
2023-04-18T05:52:32.843Z,14.33
2023-04-18T05:55:04.755Z,13.83
2023-04-18T05:57:36.636Z,13.93
2023-04-18T06:00:12.936Z,14.43
2023-04-18T06:02:45.117Z,14.03
2023-04-18T06:05:17.648Z,13.67
2023-04-18T06:07:49.648Z,13.60
2023-04-18T06:10:21.554Z,13.07
2023-04-18T06:12:53.453Z,13.13
2023-04-18T06:15:26.635Z,13.73
2023-04-18T06:17:58.614Z,13.87
2023-04-18T06:20:30.478Z,13.90
2023-04-18T06:23:02.194Z,13.57
2023-04-18T06:25:34.062Z,14.40
2023-04-18T06:28:05.960Z,13.87
2023-04-18T06:30:39.198Z,14.00
2023-04-18T06:33:11.333Z,14.03
2023-04-18T06:35:43.499Z,14.53
2023-04-18T06:38:15.943Z,15.33
2023-04-18T06:40:47.910Z,14.40
2023-04-18T06:43:19.687Z,14.10
2023-04-18T06:45:52.756Z,14.07
2023-04-18T06:48:24.644Z,13.63
2023-04-18T06:50:56.571Z,14.80
2023-04-18T06:53:28.476Z,14.77
2023-04-18T06:56:00.391Z,15.70
2023-04-18T06:58:32.271Z,14.53
2023-04-18T07:01:06.153Z,15.07
2023-04-18T07:03:37.940Z,15.37
2023-04-18T07:06:11.587Z,14.33
2023-04-18T07:08:43.450Z,14.20
2023-04-18T07:11:18.483Z,14.63
2023-04-18T07:13:50.485Z,13.50
2023-04-18T07:16:23.436Z,16.07
2023-04-18T07:18:55.249Z,15.03
2023-04-18T07:21:27.370Z,15.07
2023-04-18T07:23:59.012Z,15.33
2023-04-18T07:26:30.868Z,14.37
2023-04-18T07:29:02.786Z,15.30
2023-04-18T07:31:36.098Z,14.53
2023-04-18T07:34:08.970Z,14.30
2023-04-18T07:36:41.902Z,14.80
2023-04-18T07:39:13.781Z,14.10
2023-04-18T07:41:45.799Z,13.97
2023-04-18T07:44:18.214Z,13.77
2023-04-18T07:46:51.144Z,14.67
2023-04-18T07:49:23.014Z,14.23
2023-04-18T07:51:54.824Z,13.13
2023-04-18T07:54:26.765Z,13.07
2023-04-18T07:56:59.049Z,13.57
2023-04-18T07:59:32.133Z,14.07
2023-04-18T08:02:05.236Z,13.37
2023-04-18T08:04:37.063Z,13.37
2023-04-18T08:07:08.704Z,13.77
2023-04-18T08:09:40.548Z,12.80
2023-04-18T08:12:12.342Z,12.53
2023-04-18T08:14:44.157Z,13.77
2023-04-18T08:17:17.122Z,12.63
2023-04-18T08:19:48.951Z,13.37
2023-04-18T08:22:20.951Z,12.87
2023-04-18T08:27:28.959Z,13.13
2023-04-18T08:30:01.712Z,12.23
2023-04-18T08:32:36.685Z,11.23
2023-04-18T08:35:09.366Z,11.57
2023-04-18T08:37:41.176Z,11.97
2023-04-18T08:40:14.141Z,11.40
2023-04-18T08:42:48.857Z,12.07
2023-04-18T08:45:24.175Z,10.70
2023-04-18T08:48:01.285Z,11.90
2023-04-18T08:50:34.652Z,10.40
2023-04-18T08:53:08.022Z,10.35
2023-04-18T08:55:40.489Z,10.50
2023-04-18T08:58:12.412Z,10.80
2023-04-18T09:00:53.031Z,11.60
2023-04-18T09:03:41.525Z,10.20
2023-04-18T09:06:20.216Z,11.10
2023-04-18T09:09:03.899Z,10.33
2023-04-18T09:11:36.103Z,10.33
2023-04-18T09:14:08.018Z,9.97
2023-04-18T09:16:50.485Z,10.17
2023-04-18T09:19:23.752Z,10.33
2023-04-18T09:22:04.503Z,10.87
2023-04-18T09:24:37.119Z,10.97
2023-04-18T09:27:14.895Z,10.30
2023-04-18T09:29:50.314Z,9.87
2023-04-18T09:32:29.628Z,9.80
2023-04-18T09:35:05.420Z,10.23
2023-04-18T09:37:39.146Z,9.37
2023-04-18T09:40:21.617Z,8.77
2023-04-18T09:42:56.509Z,9.37
2023-04-18T09:45:29.851Z,9.13
2023-04-18T09:48:01.762Z,8.63
2023-04-18T09:50:37.855Z,8.60
2023-04-18T09:53:13.280Z,8.83
2023-04-18T09:55:47.245Z,8.57
2023-04-18T09:58:22.294Z,9.03
2023-04-18T10:00:57.304Z,8.90
2023-04-18T10:03:42.334Z,8.90
2023-04-18T10:06:17.836Z,8.13
2023-04-18T10:08:52.745Z,8.30
2023-04-18T10:11:25.085Z,7.80
2023-04-18T10:14:03.563Z,8.47
2023-04-18T10:16:36.255Z,7.50
2023-04-18T10:19:26.828Z,7.53
2023-04-18T10:22:02.761Z,7.43
2023-04-18T10:24:57.056Z,8.10
2023-04-18T10:28:01.217Z,7.20
2023-04-18T10:31:03.479Z,7.57
2023-04-18T10:33:40.942Z,7.40
2023-04-18T10:36:21.686Z,6.97
2023-04-18T10:39:00.652Z,6.63
2023-04-18T10:41:35.585Z,6.57
2023-04-18T10:44:24.230Z,6.83
2023-04-18T10:47:32.717Z,6.40
2023-04-18T10:50:07.070Z,6.53
2023-04-18T10:52:39.402Z,6.73
2023-04-18T10:55:32.713Z,6.90
2023-04-18T10:58:06.283Z,6.27
2023-04-18T11:00:38.124Z,6.70
2023-04-18T11:03:10.572Z,6.33
2023-04-18T11:05:42.456Z,6.40
2023-04-18T11:08:28.616Z,7.00
2023-04-18T11:11:09.401Z,6.60
2023-04-18T11:13:55.385Z,7.23
2023-04-18T11:16:34.877Z,6.33
2023-04-18T11:19:19.118Z,6.53
2023-04-18T11:21:51.678Z,6.80
2023-04-18T11:24:27.344Z,6.47
2023-04-18T11:27:00.678Z,6.80
2023-04-18T11:29:32.312Z,6.87
2023-04-18T11:32:06.601Z,7.13
2023-04-18T11:34:38.617Z,6.17
2023-04-18T11:37:11.394Z,6.13
2023-04-18T11:39:46.525Z,6.40
2023-04-18T11:42:19.837Z,6.50
2023-04-18T11:44:51.704Z,6.57
2023-04-18T11:47:31.618Z,5.93
2023-04-18T11:50:06.946Z,6.30
2023-04-18T11:52:41.442Z,6.53
2023-04-18T11:55:22.053Z,6.93
2023-04-18T11:57:59.644Z,6.57
2023-04-18T12:00:38.461Z,6.30
2023-04-18T12:03:18.832Z,7.10
2023-04-18T12:05:59.002Z,7.23
2023-04-18T12:08:32.224Z,5.93
2023-04-18T12:11:03.797Z,6.70
2023-04-18T12:13:38.101Z,6.77
2023-04-18T12:16:11.330Z,6.53
2023-04-18T12:18:42.982Z,6.63
2023-04-18T12:21:17.052Z,6.10
2023-04-18T12:23:48.702Z,6.40
2023-04-18T12:26:22.790Z,6.67
2023-04-18T12:28:56.885Z,6.63
2023-04-18T12:31:28.858Z,6.37
2023-04-18T12:34:00.538Z,5.83
2023-04-18T12:36:32.435Z,6.17
2023-04-18T12:39:04.461Z,6.60
2023-04-18T12:41:36.112Z,6.20
2023-04-18T12:44:09.764Z,6.13
2023-04-18T12:46:41.673Z,6.93
2023-04-18T12:49:13.699Z,6.90
2023-04-18T12:51:45.545Z,6.47
2023-04-18T12:54:17.380Z,6.83
2023-04-18T12:56:50.187Z,6.90
2023-04-18T12:59:23.317Z,6.90
2023-04-18T13:01:55.210Z,7.57
2023-04-18T13:04:27.145Z,6.83
2023-04-18T13:06:59.179Z,6.93
2023-04-18T13:09:31.546Z,6.73
2023-04-18T13:12:03.518Z,6.67
2023-04-18T13:14:36.446Z,7.33
2023-04-18T13:17:08.677Z,7.40
2023-04-18T13:19:41.467Z,6.80
2023-04-18T13:22:13.300Z,6.97
2023-04-18T13:24:45.145Z,6.53
2023-04-18T13:27:17.126Z,6.60
2023-04-18T13:29:50.167Z,6.90
2023-04-18T13:32:22.202Z,6.27
2023-04-18T13:34:56.065Z,6.60
2023-04-18T13:37:28.224Z,6.57
2023-04-18T13:40:00.238Z,6.90
2023-04-18T13:42:32.114Z,6.20
2023-04-18T13:45:05.188Z,6.63
2023-04-18T13:47:37.498Z,6.73
2023-04-18T13:50:11.752Z,6.50
2023-04-18T13:52:43.526Z,6.40
2023-04-18T13:55:16.083Z,6.00
2023-04-18T13:57:47.735Z,6.47
2023-04-18T14:00:23.413Z,5.47
2023-04-18T14:02:57.509Z,6.30
2023-04-18T14:05:30.531Z,5.87
2023-04-18T14:08:03.935Z,5.60
2023-04-18T14:10:36.109Z,5.60
2023-04-18T14:13:07.976Z,5.23
2023-04-18T14:15:41.286Z,5.90
2023-04-18T14:18:13.176Z,6.20
2023-04-18T14:20:45.036Z,5.67
2023-04-18T14:23:16.963Z,5.40
2023-04-18T14:25:48.771Z,4.90
2023-04-18T14:28:24.765Z,6.20
2023-04-18T14:31:01.933Z,5.80
2023-04-18T14:33:34.946Z,6.07
2023-04-18T14:36:09.283Z,5.37
2023-04-18T14:38:41.626Z,5.60
2023-04-18T14:41:13.544Z,5.33
2023-04-18T14:43:45.401Z,6.20
2023-04-18T14:46:18.858Z,5.80
2023-04-18T14:48:50.914Z,5.67
2023-04-18T14:51:22.768Z,5.30
2023-04-18T14:53:55.472Z,5.93
2023-04-18T14:56:27.202Z,5.40
2023-04-18T14:58:59.023Z,5.77
2023-04-18T15:01:32.407Z,5.50
2023-04-18T15:04:04.458Z,5.53
2023-04-18T15:06:36.937Z,5.77
2023-04-18T15:09:08.620Z,6.17
2023-04-18T15:11:40.540Z,6.10
2023-04-18T15:14:14.113Z,6.27
2023-04-18T15:16:49.823Z,6.87
2023-04-18T15:19:21.775Z,6.80
2023-04-18T15:21:54.160Z,6.53
2023-04-18T15:24:26.331Z,6.60
2023-04-18T15:26:58.733Z,6.97
2023-04-18T15:29:30.570Z,6.17
2023-04-18T15:32:05.090Z,7.13
2023-04-18T15:34:37.099Z,7.27
2023-04-18T15:37:09.304Z,7.47
2023-04-18T15:39:40.930Z,7.23
2023-04-18T15:42:12.881Z,7.20
2023-04-18T15:44:44.515Z,7.97
2023-04-18T15:47:17.656Z,8.03
2023-04-18T15:49:50.578Z,8.67
2023-04-18T15:52:22.419Z,7.43
2023-04-18T15:54:55.369Z,6.63
2023-04-18T15:57:29.272Z,7.83
2023-04-18T16:00:01.206Z,8.07
2023-04-18T16:02:34.234Z,7.53
2023-04-18T16:05:05.962Z,8.47
2023-04-18T16:07:38.118Z,8.20
2023-04-18T16:10:11.153Z,8.00
2023-04-18T16:12:43.208Z,7.87
2023-04-18T16:15:15.600Z,7.93
2023-04-18T16:17:49.366Z,7.73
2023-04-18T16:20:21.223Z,8.27
2023-04-18T16:22:53.079Z,8.03
2023-04-18T16:25:24.836Z,8.50
2023-04-18T16:27:56.689Z,8.13
2023-04-18T16:30:28.498Z,8.73
2023-04-18T16:33:01.693Z,7.97
2023-04-18T16:35:33.633Z,8.77
2023-04-18T16:38:05.362Z,9.10
2023-04-18T16:40:36.965Z,8.80
2023-04-18T16:43:08.815Z,9.20
2023-04-18T16:45:40.847Z,8.23
2023-04-18T16:48:13.790Z,8.43
2023-04-18T16:50:45.713Z,9.83
2023-04-18T16:53:17.676Z,9.63
2023-04-18T16:55:50.327Z,8.83
2023-04-18T16:58:23.163Z,9.03
2023-04-18T17:00:54.753Z,9.47
2023-04-18T17:03:27.928Z,8.77
2023-04-18T17:06:00.794Z,9.00
2023-04-18T17:08:33.658Z,9.27
2023-04-18T17:11:05.507Z,8.80
2023-04-18T17:13:36.527Z,8.60
2023-04-18T17:16:09.541Z,9.27
2023-04-18T17:18:42.730Z,8.40
2023-04-18T17:21:14.501Z,9.37
2023-04-18T17:23:47.389Z,9.87
2023-04-18T17:26:19.367Z,8.80
2023-04-18T17:28:51.286Z,9.07
2023-04-18T17:31:23.315Z,9.07
2023-04-18T17:33:56.376Z,9.50
2023-04-18T17:36:29.761Z,9.40
2023-04-18T17:39:06.158Z,9.43
2023-04-18T17:41:41.763Z,9.20
2023-04-18T17:44:13.682Z,9.30
2023-04-18T17:46:46.770Z,9.20
2023-04-18T17:49:20.501Z,9.50
2023-04-18T17:51:52.364Z,9.67
2023-04-18T17:54:24.204Z,9.73
2023-04-18T17:56:57.754Z,9.53
2023-04-18T17:59:37.422Z,9.27
2023-04-18T18:02:11.640Z,9.07
2023-04-18T18:04:44.865Z,8.50
2023-04-18T18:07:16.638Z,8.97
2023-04-18T18:09:48.656Z,9.53
2023-04-18T18:12:20.473Z,9.07
2023-04-18T18:14:52.354Z,8.90
2023-04-18T18:17:24.357Z,9.97
2023-04-18T18:19:57.485Z,9.37
2023-04-18T18:22:29.162Z,9.33
2023-04-18T18:25:00.838Z,10.77
2023-04-18T18:27:32.700Z,9.60
2023-04-18T18:30:06.624Z,10.03
2023-04-18T18:32:38.462Z,10.17
2023-04-18T18:35:12.927Z,9.90
2023-04-18T18:37:46.216Z,9.67
2023-04-18T18:40:18.020Z,10.00
2023-04-18T18:42:51.360Z,9.40
2023-04-18T18:45:24.931Z,9.60
2023-04-18T18:47:56.868Z,9.77
2023-04-18T18:50:29.855Z,9.33
2023-04-18T18:53:02.374Z,9.80
2023-04-18T18:55:34.843Z,9.20
2023-04-18T18:58:08.209Z,9.47
2023-04-18T19:00:41.498Z,9.17
2023-04-18T19:03:18.325Z,9.30
2023-04-18T19:05:51.582Z,8.63
2023-04-18T19:08:24.971Z,9.77
2023-04-18T19:10:56.883Z,9.30
2023-04-18T19:13:28.750Z,8.37
2023-04-18T19:16:00.745Z,8.03
2023-04-18T19:18:32.728Z,7.63
2023-04-18T19:21:05.723Z,7.23
2023-04-18T19:23:37.632Z,7.10
2023-04-18T19:26:09.545Z,6.60
2023-04-18T19:28:41.911Z,6.30
2023-04-18T19:31:13.829Z,5.83
2023-04-18T19:33:45.942Z,5.20
2023-04-18T19:36:19.021Z,5.57
2023-04-18T19:38:50.745Z,5.40
2023-04-18T19:41:22.650Z,5.67
2023-04-18T19:43:54.484Z,4.80
2023-04-18T19:46:27.905Z,6.17
2023-04-18T19:48:59.569Z,5.20
2023-04-18T19:51:32.679Z,5.03
2023-04-18T19:54:04.620Z,5.27
2023-04-18T19:56:36.530Z,5.20
2023-04-18T19:59:08.383Z,5.67
2023-04-18T20:01:40.393Z,4.87
2023-04-18T20:04:14.291Z,5.03
2023-04-18T20:06:47.605Z,5.27
2023-04-18T20:09:19.783Z,4.90
2023-04-18T20:11:54.202Z,4.97
2023-04-18T20:14:26.191Z,4.87
2023-04-18T20:16:57.842Z,4.93
2023-04-18T20:19:29.934Z,4.87
2023-04-18T20:22:03.719Z,4.87
2023-04-18T20:24:35.578Z,5.33
2023-04-18T20:27:07.418Z,4.90
2023-04-18T20:29:39.379Z,5.60
2023-04-18T20:32:12.341Z,4.40
2023-04-18T20:34:44.131Z,4.80
2023-04-18T20:37:19.748Z,4.90
2023-04-18T20:39:52.779Z,4.53
2023-04-18T20:42:24.760Z,4.73
2023-04-18T20:44:58.739Z,4.47
2023-04-18T20:47:30.394Z,4.63
2023-04-18T20:50:02.287Z,4.43
2023-04-18T20:52:35.463Z,4.53
2023-04-18T20:55:07.385Z,4.60
2023-04-18T20:57:39.330Z,4.57
2023-04-18T21:00:14.265Z,4.53
2023-04-18T21:02:46.522Z,5.07
2023-04-18T21:05:18.233Z,4.30
2023-04-18T21:07:51.389Z,4.63
2023-04-18T21:10:23.108Z,4.93
2023-04-18T21:12:54.974Z,4.73
2023-04-18T21:15:26.877Z,4.50
2023-04-18T21:17:58.774Z,4.80
2023-04-18T21:20:30.635Z,4.90
2023-04-18T21:23:03.678Z,4.43
2023-04-18T21:25:35.516Z,4.57
2023-04-18T21:28:07.888Z,4.50
2023-04-18T21:30:39.779Z,4.60
2023-04-18T21:33:11.842Z,4.40
2023-04-18T21:35:43.488Z,5.23
2023-04-18T21:38:16.662Z,4.90
2023-04-18T21:40:48.925Z,5.17
2023-04-18T21:43:20.638Z,4.80
2023-04-18T21:45:52.532Z,5.10
2023-04-18T21:48:24.435Z,5.20
2023-04-18T21:50:59.198Z,5.30
2023-04-18T21:53:32.437Z,5.53
2023-04-18T21:56:05.460Z,4.97
2023-04-18T21:58:37.419Z,4.90
2023-04-18T22:01:09.331Z,5.83
2023-04-18T22:03:41.645Z,5.23
2023-04-18T22:06:13.410Z,5.30
2023-04-18T22:08:46.575Z,5.53
2023-04-18T22:11:18.954Z,5.20
2023-04-18T22:13:54.193Z,5.70
2023-04-18T22:16:28.691Z,5.37
2023-04-18T22:19:01.072Z,5.47
2023-04-18T22:21:32.974Z,5.27
2023-04-18T22:24:06.024Z,5.80
2023-04-18T22:26:37.892Z,6.20
2023-04-18T22:29:09.857Z,5.90
2023-04-18T22:31:43.049Z,5.97
2023-04-18T22:34:14.931Z,5.57
2023-04-18T22:36:46.894Z,6.10
2023-04-18T22:39:20.292Z,5.40
2023-04-18T22:41:52.100Z,5.60
2023-04-18T22:44:23.945Z,5.40
2023-04-18T22:46:55.902Z,5.37
2023-04-18T22:49:27.558Z,5.00
2023-04-18T22:51:59.598Z,5.83
2023-04-18T22:54:32.572Z,5.77
2023-04-18T22:57:04.467Z,5.57
2023-04-18T22:59:36.415Z,5.77
2023-04-18T23:02:08.347Z,5.40
2023-04-18T23:04:42.159Z,5.57
2023-04-18T23:07:14.323Z,5.57
2023-04-18T23:09:47.380Z,5.17
2023-04-18T23:12:19.214Z,4.93
2023-04-18T23:14:51.105Z,5.67
2023-04-18T23:17:23.008Z,5.50
2023-04-18T23:19:54.860Z,6.10
2023-04-18T23:22:26.713Z,5.80
2023-04-18T23:25:00.175Z,5.40
2023-04-18T23:27:32.053Z,5.33
2023-04-18T23:30:03.994Z,4.80
2023-04-18T23:32:35.864Z,4.70
2023-04-18T23:35:07.820Z,4.80
2023-04-18T23:37:40.118Z,4.53
2023-04-18T23:40:14.491Z,4.13
2023-04-18T23:42:47.096Z,4.97
2023-04-18T23:45:20.634Z,4.50
2023-04-18T23:47:52.479Z,4.60
2023-04-18T23:50:24.569Z,4.27
2023-04-18T23:52:56.385Z,4.10
2023-04-18T23:55:29.738Z,3.70
2023-04-18T23:58:01.730Z,4.17
